sensor_id;sensor_type;location;lat;lon;timestamp;P1;durP1;ratioP1;P2;durP2;ratioP2
1402;SDS011;696;48.546;9.896;2024-01-11T00:00:03;0.77;;;0.77;;
1402;SDS011;696;48.546;9.896;2024-01-11T00:02:29;0.80;;;0.80;;
1402;SDS011;696;48.546;9.896;2024-01-11T00:04:55;0.90;;;0.90;;
1402;SDS011;696;48.546;9.896;2024-01-11T00:07:20;0.80;;;0.80;;
1402;SDS011;696;48.546;9.896;2024-01-11T00:09:45;0.93;;;0.93;;
1402;SDS011;696;48.546;9.896;2024-01-11T00:12:11;0.80;;;0.80;;
1402;SDS011;696;48.546;9.896;2024-01-11T00:14:36;0.80;;;0.80;;
1402;SDS011;696;48.546;9.896;2024-01-11T00:17:02;0.82;;;0.82;;
1402;SDS011;696;48.546;9.896;2024-01-11T00:19:27;0.80;;;0.80;;
1402;SDS011;696;48.546;9.896;2024-01-11T00:21:52;0.80;;;0.80;;
1402;SDS011;696;48.546;9.896;2024-01-11T00:24:18;0.88;;;0.88;;
1402;SDS011;696;48.546;9.896;2024-01-11T00:26:43;0.98;;;0.98;;
1402;SDS011;696;48.546;9.896;2024-01-11T00:29:08;0.80;;;0.80;;
1402;SDS011;696;48.546;9.896;2024-01-11T00:31:34;0.80;;;0.80;;
1402;SDS011;696;48.546;9.896;2024-01-11T00:34:00;0.90;;;0.90;;
1402;SDS011;696;48.546;9.896;2024-01-11T00:36:25;0.90;;;0.90;;
1402;SDS011;696;48.546;9.896;2024-01-11T00:38:51;0.90;;;0.90;;
1402;SDS011;696;48.546;9.896;2024-01-11T00:41:16;0.80;;;0.80;;
1402;SDS011;696;48.546;9.896;2024-01-11T00:43:42;0.80;;;0.80;;
1402;SDS011;696;48.546;9.896;2024-01-11T00:46:07;0.80;;;0.80;;
1402;SDS011;696;48.546;9.896;2024-01-11T00:48:32;1.00;;;1.00;;
1402;SDS011;696;48.546;9.896;2024-01-11T00:50:58;0.90;;;0.90;;
1402;SDS011;696;48.546;9.896;2024-01-11T00:53:23;0.80;;;0.80;;
1402;SDS011;696;48.546;9.896;2024-01-11T00:55:50;0.80;;;0.80;;
1402;SDS011;696;48.546;9.896;2024-01-11T00:58:16;0.90;;;0.90;;
1402;SDS011;696;48.546;9.896;2024-01-11T01:00:41;0.80;;;0.80;;
1402;SDS011;696;48.546;9.896;2024-01-11T01:03:07;0.80;;;0.80;;
1402;SDS011;696;48.546;9.896;2024-01-11T01:05:32;0.90;;;0.90;;
1402;SDS011;696;48.546;9.896;2024-01-11T01:07:57;0.80;;;0.80;;
1402;SDS011;696;48.546;9.896;2024-01-11T01:10:23;0.82;;;0.82;;
1402;SDS011;696;48.546;9.896;2024-01-11T01:12:48;0.88;;;0.88;;
1402;SDS011;696;48.546;9.896;2024-01-11T01:15:14;0.82;;;0.82;;
1402;SDS011;696;48.546;9.896;2024-01-11T01:17:39;1.00;;;1.00;;
1402;SDS011;696;48.546;9.896;2024-01-11T01:20:05;0.80;;;0.80;;
1402;SDS011;696;48.546;9.896;2024-01-11T01:22:30;0.88;;;0.88;;
1402;SDS011;696;48.546;9.896;2024-01-11T01:24:56;0.85;;;0.85;;
1402;SDS011;696;48.546;9.896;2024-01-11T01:27:21;0.85;;;0.85;;
1402;SDS011;696;48.546;9.896;2024-01-11T01:29:46;0.80;;;0.80;;
1402;SDS011;696;48.546;9.896;2024-01-11T01:32:12;0.80;;;0.80;;
1402;SDS011;696;48.546;9.896;2024-01-11T01:34:37;0.90;;;0.90;;
1402;SDS011;696;48.546;9.896;2024-01-11T01:37:02;0.93;;;0.93;;
1402;SDS011;696;48.546;9.896;2024-01-11T01:39:28;0.80;;;0.80;;
1402;SDS011;696;48.546;9.896;2024-01-11T01:41:53;0.80;;;0.80;;
1402;SDS011;696;48.546;9.896;2024-01-11T01:44:19;0.90;;;0.90;;
1402;SDS011;696;48.546;9.896;2024-01-11T01:46:44;1.00;;;1.00;;
1402;SDS011;696;48.546;9.896;2024-01-11T01:49:09;0.90;;;0.90;;
1402;SDS011;696;48.546;9.896;2024-01-11T01:51:35;0.90;;;0.90;;
1402;SDS011;696;48.546;9.896;2024-01-11T01:54:00;0.80;;;0.80;;
1402;SDS011;696;48.546;9.896;2024-01-11T01:56:26;0.85;;;0.85;;
1402;SDS011;696;48.546;9.896;2024-01-11T01:58:52;0.90;;;0.90;;
1402;SDS011;696;48.546;9.896;2024-01-11T02:01:18;0.80;;;0.80;;
1402;SDS011;696;48.546;9.896;2024-01-11T02:03:45;0.95;;;0.95;;
1402;SDS011;696;48.546;9.896;2024-01-11T02:06:11;0.90;;;0.90;;
1402;SDS011;696;48.546;9.896;2024-01-11T02:08:36;0.90;;;0.90;;
1402;SDS011;696;48.546;9.896;2024-01-11T02:11:02;0.80;;;0.80;;
1402;SDS011;696;48.546;9.896;2024-01-11T02:13:28;1.00;;;1.00;;
1402;SDS011;696;48.546;9.896;2024-01-11T02:15:53;0.90;;;0.90;;
1402;SDS011;696;48.546;9.896;2024-01-11T02:18:19;0.70;;;0.70;;
1402;SDS011;696;48.546;9.896;2024-01-11T02:20:44;0.85;;;0.85;;
1402;SDS011;696;48.546;9.896;2024-01-11T02:23:12;0.98;;;0.98;;
1402;SDS011;696;48.546;9.896;2024-01-11T02:25:40;0.80;;;0.80;;
1402;SDS011;696;48.546;9.896;2024-01-11T02:28:06;0.80;;;0.80;;
1402;SDS011;696;48.546;9.896;2024-01-11T02:30:33;0.80;;;0.80;;
1402;SDS011;696;48.546;9.896;2024-01-11T02:32:59;0.80;;;0.80;;
1402;SDS011;696;48.546;9.896;2024-01-11T02:35:24;0.90;;;0.90;;
1402;SDS011;696;48.546;9.896;2024-01-11T02:37:50;0.93;;;0.93;;
1402;SDS011;696;48.546;9.896;2024-01-11T02:40:16;0.73;;;0.73;;
1402;SDS011;696;48.546;9.896;2024-01-11T02:42:41;0.70;;;0.70;;
1402;SDS011;696;48.546;9.896;2024-01-11T02:45:07;0.80;;;0.80;;
1402;SDS011;696;48.546;9.896;2024-01-11T02:47:32;0.82;;;0.82;;
1402;SDS011;696;48.546;9.896;2024-01-11T02:49:58;0.90;;;0.90;;
1402;SDS011;696;48.546;9.896;2024-01-11T02:52:23;0.80;;;0.80;;
1402;SDS011;696;48.546;9.896;2024-01-11T02:54:49;0.90;;;0.90;;
1402;SDS011;696;48.546;9.896;2024-01-11T02:57:14;0.90;;;0.90;;
1402;SDS011;696;48.546;9.896;2024-01-11T02:59:40;0.93;;;0.93;;
1402;SDS011;696;48.546;9.896;2024-01-11T03:02:05;0.90;;;0.90;;
1402;SDS011;696;48.546;9.896;2024-01-11T03:04:31;0.80;;;0.80;;
1402;SDS011;696;48.546;9.896;2024-01-11T03:06:56;1.10;;;1.10;;
1402;SDS011;696;48.546;9.896;2024-01-11T03:09:21;0.90;;;0.90;;
1402;SDS011;696;48.546;9.896;2024-01-11T03:11:47;0.80;;;0.80;;
1402;SDS011;696;48.546;9.896;2024-01-11T03:14:12;0.90;;;0.90;;
1402;SDS011;696;48.546;9.896;2024-01-11T03:16:37;0.95;;;0.95;;
1402;SDS011;696;48.546;9.896;2024-01-11T03:19:04;0.80;;;0.80;;
1402;SDS011;696;48.546;9.896;2024-01-11T03:21:30;0.80;;;0.80;;
1402;SDS011;696;48.546;9.896;2024-01-11T03:23:55;1.00;;;1.00;;
1402;SDS011;696;48.546;9.896;2024-01-11T03:26:21;0.80;;;0.80;;
1402;SDS011;696;48.546;9.896;2024-01-11T03:28:46;0.80;;;0.80;;
1402;SDS011;696;48.546;9.896;2024-01-11T03:31:11;0.80;;;0.80;;
1402;SDS011;696;48.546;9.896;2024-01-11T03:33:37;0.90;;;0.90;;
1402;SDS011;696;48.546;9.896;2024-01-11T03:36:09;0.90;;;0.90;;
1402;SDS011;696;48.546;9.896;2024-01-11T03:38:35;1.00;;;1.00;;
1402;SDS011;696;48.546;9.896;2024-01-11T03:41:00;0.90;;;0.90;;
1402;SDS011;696;48.546;9.896;2024-01-11T03:43:25;0.80;;;0.80;;
1402;SDS011;696;48.546;9.896;2024-01-11T03:45:51;0.90;;;0.90;;
1402;SDS011;696;48.546;9.896;2024-01-11T03:48:16;0.90;;;0.90;;
1402;SDS011;696;48.546;9.896;2024-01-11T03:50:41;0.82;;;0.82;;
1402;SDS011;696;48.546;9.896;2024-01-11T03:53:07;0.90;;;0.90;;
1402;SDS011;696;48.546;9.896;2024-01-11T03:55:33;0.80;;;0.80;;
1402;SDS011;696;48.546;9.896;2024-01-11T03:57:58;0.80;;;0.80;;
1402;SDS011;696;48.546;9.896;2024-01-11T04:00:24;1.00;;;1.00;;
1402;SDS011;696;48.546;9.896;2024-01-11T04:02:49;0.90;;;0.90;;
1402;SDS011;696;48.546;9.896;2024-01-11T04:05:14;0.90;;;0.90;;
1402;SDS011;696;48.546;9.896;2024-01-11T04:07:40;0.90;;;0.90;;
1402;SDS011;696;48.546;9.896;2024-01-11T04:10:06;0.90;;;0.90;;
1402;SDS011;696;48.546;9.896;2024-01-11T04:12:33;0.80;;;0.80;;
1402;SDS011;696;48.546;9.896;2024-01-11T04:14:58;0.90;;;0.90;;
1402;SDS011;696;48.546;9.896;2024-01-11T04:17:24;0.90;;;0.90;;
1402;SDS011;696;48.546;9.896;2024-01-11T04:19:49;0.90;;;0.90;;
1402;SDS011;696;48.546;9.896;2024-01-11T04:22:14;0.90;;;0.90;;
1402;SDS011;696;48.546;9.896;2024-01-11T04:24:41;0.88;;;0.88;;
1402;SDS011;696;48.546;9.896;2024-01-11T04:27:07;0.80;;;0.80;;
1402;SDS011;696;48.546;9.896;2024-01-11T04:29:32;0.88;;;0.88;;
1402;SDS011;696;48.546;9.896;2024-01-11T04:31:57;0.80;;;0.80;;
1402;SDS011;696;48.546;9.896;2024-01-11T04:34:23;0.80;;;0.80;;
1402;SDS011;696;48.546;9.896;2024-01-11T04:36:49;0.80;;;0.80;;
1402;SDS011;696;48.546;9.896;2024-01-11T04:39:14;0.80;;;0.80;;
1402;SDS011;696;48.546;9.896;2024-01-11T04:41:40;0.80;;;0.80;;
1402;SDS011;696;48.546;9.896;2024-01-11T04:44:05;0.90;;;0.90;;
1402;SDS011;696;48.546;9.896;2024-01-11T04:46:31;0.80;;;0.80;;
1402;SDS011;696;48.546;9.896;2024-01-11T04:48:56;0.80;;;0.80;;
1402;SDS011;696;48.546;9.896;2024-01-11T04:51:21;0.80;;;0.80;;
1402;SDS011;696;48.546;9.896;2024-01-11T04:53:47;0.95;;;0.95;;
1402;SDS011;696;48.546;9.896;2024-01-11T04:56:16;0.90;;;0.90;;
1402;SDS011;696;48.546;9.896;2024-01-11T04:58:42;0.95;;;0.95;;
1402;SDS011;696;48.546;9.896;2024-01-11T05:01:14;0.80;;;0.80;;
1402;SDS011;696;48.546;9.896;2024-01-11T05:03:41;0.90;;;0.90;;
1402;SDS011;696;48.546;9.896;2024-01-11T05:06:06;0.90;;;0.90;;
1402;SDS011;696;48.546;9.896;2024-01-11T05:08:32;0.82;;;0.82;;
1402;SDS011;696;48.546;9.896;2024-01-11T05:10:57;0.80;;;0.80;;
1402;SDS011;696;48.546;9.896;2024-01-11T05:13:23;0.98;;;0.98;;
1402;SDS011;696;48.546;9.896;2024-01-11T05:15:48;0.80;;;0.80;;
1402;SDS011;696;48.546;9.896;2024-01-11T05:18:13;1.00;;;1.00;;
1402;SDS011;696;48.546;9.896;2024-01-11T05:20:39;0.77;;;0.77;;
1402;SDS011;696;48.546;9.896;2024-01-11T05:23:05;0.90;;;0.90;;
1402;SDS011;696;48.546;9.896;2024-01-11T05:25:31;0.95;;;0.95;;
1402;SDS011;696;48.546;9.896;2024-01-11T05:27:58;1.00;;;1.00;;
1402;SDS011;696;48.546;9.896;2024-01-11T05:30:24;0.90;;;0.90;;
1402;SDS011;696;48.546;9.896;2024-01-11T05:32:50;0.90;;;0.90;;
1402;SDS011;696;48.546;9.896;2024-01-11T05:35:15;0.80;;;0.80;;
1402;SDS011;696;48.546;9.896;2024-01-11T05:37:40;0.80;;;0.80;;
1402;SDS011;696;48.546;9.896;2024-01-11T05:40:06;0.82;;;0.82;;
1402;SDS011;696;48.546;9.896;2024-01-11T05:42:32;0.90;;;0.90;;
1402;SDS011;696;48.546;9.896;2024-01-11T05:44:58;0.90;;;0.90;;
1402;SDS011;696;48.546;9.896;2024-01-11T05:47:25;0.88;;;0.88;;
1402;SDS011;696;48.546;9.896;2024-01-11T05:49:50;0.80;;;0.80;;
1402;SDS011;696;48.546;9.896;2024-01-11T05:52:16;0.70;;;0.70;;
1402;SDS011;696;48.546;9.896;2024-01-11T05:54:41;0.85;;;0.85;;
1402;SDS011;696;48.546;9.896;2024-01-11T05:57:06;0.73;;;0.73;;
1402;SDS011;696;48.546;9.896;2024-01-11T05:59:32;1.00;;;1.00;;
1402;SDS011;696;48.546;9.896;2024-01-11T06:01:58;0.70;;;0.70;;
1402;SDS011;696;48.546;9.896;2024-01-11T06:04:25;0.80;;;0.80;;
1402;SDS011;696;48.546;9.896;2024-01-11T06:06:51;0.85;;;0.85;;
1402;SDS011;696;48.546;9.896;2024-01-11T06:09:16;0.88;;;0.88;;
1402;SDS011;696;48.546;9.896;2024-01-11T06:11:42;0.88;;;0.88;;
1402;SDS011;696;48.546;9.896;2024-01-11T06:14:07;0.80;;;0.80;;
1402;SDS011;696;48.546;9.896;2024-01-11T06:16:33;0.70;;;0.70;;
1402;SDS011;696;48.546;9.896;2024-01-11T06:18:58;0.90;;;0.90;;
1402;SDS011;696;48.546;9.896;2024-01-11T06:21:23;0.80;;;0.80;;
1402;SDS011;696;48.546;9.896;2024-01-11T06:23:49;0.88;;;0.88;;
1402;SDS011;696;48.546;9.896;2024-01-11T06:26:14;0.90;;;0.90;;
1402;SDS011;696;48.546;9.896;2024-01-11T06:28:39;0.80;;;0.80;;
1402;SDS011;696;48.546;9.896;2024-01-11T06:31:05;0.95;;;0.95;;
1402;SDS011;696;48.546;9.896;2024-01-11T06:33:31;0.80;;;0.80;;
1402;SDS011;696;48.546;9.896;2024-01-11T06:35:57;0.80;;;0.80;;
1402;SDS011;696;48.546;9.896;2024-01-11T06:38:23;0.80;;;0.80;;
1402;SDS011;696;48.546;9.896;2024-01-11T06:40:48;0.70;;;0.70;;
1402;SDS011;696;48.546;9.896;2024-01-11T06:43:14;0.90;;;0.90;;
1402;SDS011;696;48.546;9.896;2024-01-11T06:45:40;0.80;;;0.80;;
1402;SDS011;696;48.546;9.896;2024-01-11T06:48:07;0.80;;;0.80;;
1402;SDS011;696;48.546;9.896;2024-01-11T06:50:33;0.80;;;0.80;;
1402;SDS011;696;48.546;9.896;2024-01-11T06:52:58;0.90;;;0.90;;
1402;SDS011;696;48.546;9.896;2024-01-11T06:55:24;0.85;;;0.85;;
1402;SDS011;696;48.546;9.896;2024-01-11T06:57:50;0.80;;;0.80;;
1402;SDS011;696;48.546;9.896;2024-01-11T07:00:15;0.90;;;0.90;;
1402;SDS011;696;48.546;9.896;2024-01-11T07:02:41;0.80;;;0.80;;
1402;SDS011;696;48.546;9.896;2024-01-11T07:05:06;0.88;;;0.88;;
1402;SDS011;696;48.546;9.896;2024-01-11T07:07:32;0.80;;;0.80;;
1402;SDS011;696;48.546;9.896;2024-01-11T07:09:58;0.88;;;0.88;;
1402;SDS011;696;48.546;9.896;2024-01-11T07:12:23;0.80;;;0.80;;
1402;SDS011;696;48.546;9.896;2024-01-11T07:14:50;0.80;;;0.80;;
1402;SDS011;696;48.546;9.896;2024-01-11T07:17:16;0.85;;;0.85;;
1402;SDS011;696;48.546;9.896;2024-01-11T07:19:41;0.90;;;0.90;;
1402;SDS011;696;48.546;9.896;2024-01-11T07:22:07;0.80;;;0.80;;
1402;SDS011;696;48.546;9.896;2024-01-11T07:24:32;1.00;;;1.00;;
1402;SDS011;696;48.546;9.896;2024-01-11T07:27:03;0.90;;;0.90;;
1402;SDS011;696;48.546;9.896;2024-01-11T07:29:29;0.70;;;0.70;;
1402;SDS011;696;48.546;9.896;2024-01-11T07:31:54;1.10;;;1.10;;
1402;SDS011;696;48.546;9.896;2024-01-11T07:34:20;0.80;;;0.80;;
1402;SDS011;696;48.546;9.896;2024-01-11T07:36:45;0.80;;;0.80;;
1402;SDS011;696;48.546;9.896;2024-01-11T07:39:10;0.85;;;0.85;;
1402;SDS011;696;48.546;9.896;2024-01-11T07:41:36;0.80;;;0.80;;
1402;SDS011;696;48.546;9.896;2024-01-11T07:44:01;0.80;;;0.80;;
1402;SDS011;696;48.546;9.896;2024-01-11T07:46:26;0.80;;;0.80;;
1402;SDS011;696;48.546;9.896;2024-01-11T07:48:52;0.90;;;0.90;;
1402;SDS011;696;48.546;9.896;2024-01-11T07:51:17;0.90;;;0.90;;
1402;SDS011;696;48.546;9.896;2024-01-11T07:53:43;0.90;;;0.90;;
1402;SDS011;696;48.546;9.896;2024-01-11T07:56:09;0.98;;;0.98;;
1402;SDS011;696;48.546;9.896;2024-01-11T07:58:34;0.90;;;0.90;;
1402;SDS011;696;48.546;9.896;2024-01-11T08:01:02;0.90;;;0.90;;
1402;SDS011;696;48.546;9.896;2024-01-11T08:03:29;0.90;;;0.90;;
1402;SDS011;696;48.546;9.896;2024-01-11T08:05:54;0.90;;;0.90;;
1402;SDS011;696;48.546;9.896;2024-01-11T08:08:20;0.80;;;0.80;;
1402;SDS011;696;48.546;9.896;2024-01-11T08:10:47;0.90;;;0.90;;
1402;SDS011;696;48.546;9.896;2024-01-11T08:13:14;0.70;;;0.70;;
1402;SDS011;696;48.546;9.896;2024-01-11T08:15:40;0.90;;;0.90;;
1402;SDS011;696;48.546;9.896;2024-01-11T08:18:06;0.80;;;0.80;;
1402;SDS011;696;48.546;9.896;2024-01-11T08:20:32;0.70;;;0.70;;
1402;SDS011;696;48.546;9.896;2024-01-11T08:22:57;0.82;;;0.82;;
1402;SDS011;696;48.546;9.896;2024-01-11T08:25:23;0.70;;;0.70;;
1402;SDS011;696;48.546;9.896;2024-01-11T08:27:48;0.80;;;0.80;;
1402;SDS011;696;48.546;9.896;2024-01-11T08:30:14;0.80;;;0.80;;
1402;SDS011;696;48.546;9.896;2024-01-11T08:32:40;0.90;;;0.90;;
1402;SDS011;696;48.546;9.896;2024-01-11T08:35:07;0.70;;;0.70;;
1402;SDS011;696;48.546;9.896;2024-01-11T08:37:34;0.70;;;0.70;;
1402;SDS011;696;48.546;9.896;2024-01-11T08:40:00;0.70;;;0.70;;
1402;SDS011;696;48.546;9.896;2024-01-11T08:42:26;0.80;;;0.80;;
1402;SDS011;696;48.546;9.896;2024-01-11T08:44:51;0.80;;;0.80;;
1402;SDS011;696;48.546;9.896;2024-01-11T08:47:17;0.80;;;0.80;;
1402;SDS011;696;48.546;9.896;2024-01-11T08:49:42;0.80;;;0.80;;
1402;SDS011;696;48.546;9.896;2024-01-11T08:52:08;0.70;;;0.70;;
1402;SDS011;696;48.546;9.896;2024-01-11T08:54:33;0.68;;;0.68;;
1402;SDS011;696;48.546;9.896;2024-01-11T08:56:59;0.77;;;0.77;;
1402;SDS011;696;48.546;9.896;2024-01-11T08:59:24;0.80;;;0.80;;
1402;SDS011;696;48.546;9.896;2024-01-11T09:01:50;0.70;;;0.70;;
1402;SDS011;696;48.546;9.896;2024-01-11T09:04:19;0.70;;;0.70;;
1402;SDS011;696;48.546;9.896;2024-01-11T09:06:44;0.70;;;0.70;;
1402;SDS011;696;48.546;9.896;2024-01-11T09:09:10;0.80;;;0.80;;
1402;SDS011;696;48.546;9.896;2024-01-11T09:11:38;0.80;;;0.80;;
1402;SDS011;696;48.546;9.896;2024-01-11T09:14:04;0.70;;;0.70;;
1402;SDS011;696;48.546;9.896;2024-01-11T09:16:30;0.70;;;0.70;;
1402;SDS011;696;48.546;9.896;2024-01-11T09:18:56;0.77;;;0.77;;
1402;SDS011;696;48.546;9.896;2024-01-11T09:21:21;0.70;;;0.70;;
1402;SDS011;696;48.546;9.896;2024-01-11T09:23:47;0.70;;;0.70;;
1402;SDS011;696;48.546;9.896;2024-01-11T09:26:12;0.70;;;0.70;;
1402;SDS011;696;48.546;9.896;2024-01-11T09:28:38;0.70;;;0.70;;
1402;SDS011;696;48.546;9.896;2024-01-11T09:31:03;0.70;;;0.70;;
1402;SDS011;696;48.546;9.896;2024-01-11T09:33:29;0.60;;;0.60;;
1402;SDS011;696;48.546;9.896;2024-01-11T09:35:54;0.80;;;0.80;;
1402;SDS011;696;48.546;9.896;2024-01-11T09:38:21;0.70;;;0.70;;
1402;SDS011;696;48.546;9.896;2024-01-11T09:40:48;0.68;;;0.68;;
1402;SDS011;696;48.546;9.896;2024-01-11T09:43:22;0.70;;;0.70;;
1402;SDS011;696;48.546;9.896;2024-01-11T09:45:48;0.60;;;0.60;;
1402;SDS011;696;48.546;9.896;2024-01-11T09:48:14;0.60;;;0.60;;
1402;SDS011;696;48.546;9.896;2024-01-11T09:50:40;0.70;;;0.70;;
1402;SDS011;696;48.546;9.896;2024-01-11T09:53:05;0.50;;;0.50;;
1402;SDS011;696;48.546;9.896;2024-01-11T09:55:32;0.60;;;0.60;;
1402;SDS011;696;48.546;9.896;2024-01-11T09:57:58;0.60;;;0.60;;
1402;SDS011;696;48.546;9.896;2024-01-11T10:00:25;0.60;;;0.60;;
1402;SDS011;696;48.546;9.896;2024-01-11T10:02:51;0.60;;;0.60;;
1402;SDS011;696;48.546;9.896;2024-01-11T10:05:17;0.57;;;0.57;;
1402;SDS011;696;48.546;9.896;2024-01-11T10:07:43;0.60;;;0.60;;
1402;SDS011;696;48.546;9.896;2024-01-11T10:10:09;0.60;;;0.60;;
1402;SDS011;696;48.546;9.896;2024-01-11T10:12:35;0.60;;;0.60;;
1402;SDS011;696;48.546;9.896;2024-01-11T10:15:07;0.63;;;0.63;;
1402;SDS011;696;48.546;9.896;2024-01-11T10:17:35;0.70;;;0.70;;
1402;SDS011;696;48.546;9.896;2024-01-11T10:20:06;0.63;;;0.63;;
1402;SDS011;696;48.546;9.896;2024-01-11T10:22:35;0.50;;;0.50;;
1402;SDS011;696;48.546;9.896;2024-01-11T10:25:08;0.70;;;0.70;;
1402;SDS011;696;48.546;9.896;2024-01-11T10:27:34;0.60;;;0.60;;
1402;SDS011;696;48.546;9.896;2024-01-11T10:29:59;0.60;;;0.60;;
1402;SDS011;696;48.546;9.896;2024-01-11T10:32:27;0.50;;;0.50;;
1402;SDS011;696;48.546;9.896;2024-01-11T10:34:53;0.60;;;0.60;;
1402;SDS011;696;48.546;9.896;2024-01-11T10:37:18;0.60;;;0.60;;
1402;SDS011;696;48.546;9.896;2024-01-11T10:39:45;0.55;;;0.55;;
1402;SDS011;696;48.546;9.896;2024-01-11T10:42:11;0.50;;;0.50;;
1402;SDS011;696;48.546;9.896;2024-01-11T10:44:39;0.60;;;0.60;;
1402;SDS011;696;48.546;9.896;2024-01-11T10:47:10;0.60;;;0.60;;
1402;SDS011;696;48.546;9.896;2024-01-11T10:49:37;0.50;;;0.50;;
1402;SDS011;696;48.546;9.896;2024-01-11T10:52:05;0.60;;;0.60;;
1402;SDS011;696;48.546;9.896;2024-01-11T10:54:31;0.57;;;0.57;;
1402;SDS011;696;48.546;9.896;2024-01-11T10:56:58;0.60;;;0.60;;
1402;SDS011;696;48.546;9.896;2024-01-11T10:59:25;0.60;;;0.60;;
1402;SDS011;696;48.546;9.896;2024-01-11T11:01:55;0.55;;;0.55;;
1402;SDS011;696;48.546;9.896;2024-01-11T11:04:23;0.50;;;0.50;;
1402;SDS011;696;48.546;9.896;2024-01-11T11:06:50;0.60;;;0.60;;
1402;SDS011;696;48.546;9.896;2024-01-11T11:09:16;0.50;;;0.50;;
1402;SDS011;696;48.546;9.896;2024-01-11T11:11:42;0.50;;;0.50;;
1402;SDS011;696;48.546;9.896;2024-01-11T11:14:08;0.50;;;0.50;;
1402;SDS011;696;48.546;9.896;2024-01-11T11:16:35;0.52;;;0.52;;
1402;SDS011;696;48.546;9.896;2024-01-11T11:19:00;0.50;;;0.50;;
1402;SDS011;696;48.546;9.896;2024-01-11T11:21:25;0.60;;;0.60;;
1402;SDS011;696;48.546;9.896;2024-01-11T11:23:52;0.50;;;0.50;;
1402;SDS011;696;48.546;9.896;2024-01-11T11:26:17;0.50;;;0.50;;
1402;SDS011;696;48.546;9.896;2024-01-11T11:28:43;0.57;;;0.57;;
1402;SDS011;696;48.546;9.896;2024-01-11T11:31:10;0.52;;;0.52;;
1402;SDS011;696;48.546;9.896;2024-01-11T11:33:36;0.50;;;0.50;;
1402;SDS011;696;48.546;9.896;2024-01-11T11:36:02;0.60;;;0.60;;
1402;SDS011;696;48.546;9.896;2024-01-11T11:38:28;0.50;;;0.50;;
1402;SDS011;696;48.546;9.896;2024-01-11T11:40:59;0.60;;;0.60;;
1402;SDS011;696;48.546;9.896;2024-01-11T11:43:29;0.50;;;0.50;;
1402;SDS011;696;48.546;9.896;2024-01-11T11:45:55;0.50;;;0.50;;
1402;SDS011;696;48.546;9.896;2024-01-11T11:51:09;0.50;;;0.50;;
1402;SDS011;696;48.546;9.896;2024-01-11T11:53:39;0.52;;;0.52;;
1402;SDS011;696;48.546;9.896;2024-01-11T11:56:06;0.50;;;0.50;;
1402;SDS011;696;48.546;9.896;2024-01-11T11:58:33;0.40;;;0.40;;
1402;SDS011;696;48.546;9.896;2024-01-11T12:00:59;0.50;;;0.50;;
1402;SDS011;696;48.546;9.896;2024-01-11T12:03:29;0.50;;;0.50;;
1402;SDS011;696;48.546;9.896;2024-01-11T12:05:56;0.40;;;0.40;;
1402;SDS011;696;48.546;9.896;2024-01-11T12:08:22;0.40;;;0.40;;
1402;SDS011;696;48.546;9.896;2024-01-11T12:10:48;0.40;;;0.40;;
1402;SDS011;696;48.546;9.896;2024-01-11T12:13:13;0.32;;;0.32;;
1402;SDS011;696;48.546;9.896;2024-01-11T12:15:40;0.40;;;0.40;;
1402;SDS011;696;48.546;9.896;2024-01-11T12:18:05;0.30;;;0.30;;
1402;SDS011;696;48.546;9.896;2024-01-11T12:20:32;0.30;;;0.30;;
1402;SDS011;696;48.546;9.896;2024-01-11T12:22:58;0.30;;;0.30;;
1402;SDS011;696;48.546;9.896;2024-01-11T12:25:23;0.40;;;0.40;;
1402;SDS011;696;48.546;9.896;2024-01-11T12:27:49;0.30;;;0.30;;
1402;SDS011;696;48.546;9.896;2024-01-11T12:30:16;0.30;;;0.30;;
1402;SDS011;696;48.546;9.896;2024-01-11T12:32:42;0.30;;;0.30;;
1402;SDS011;696;48.546;9.896;2024-01-11T12:35:08;0.30;;;0.30;;
1402;SDS011;696;48.546;9.896;2024-01-11T12:37:34;0.30;;;0.30;;
1402;SDS011;696;48.546;9.896;2024-01-11T12:39:59;0.40;;;0.40;;
1402;SDS011;696;48.546;9.896;2024-01-11T12:42:26;0.30;;;0.30;;
1402;SDS011;696;48.546;9.896;2024-01-11T12:44:52;0.28;;;0.28;;
1402;SDS011;696;48.546;9.896;2024-01-11T12:47:17;0.30;;;0.30;;
1402;SDS011;696;48.546;9.896;2024-01-11T12:49:46;0.30;;;0.30;;
1402;SDS011;696;48.546;9.896;2024-01-11T12:52:20;0.30;;;0.30;;
1402;SDS011;696;48.546;9.896;2024-01-11T12:54:46;0.30;;;0.30;;
1402;SDS011;696;48.546;9.896;2024-01-11T12:57:20;0.30;;;0.30;;
1402;SDS011;696;48.546;9.896;2024-01-11T12:59:46;0.30;;;0.30;;
1402;SDS011;696;48.546;9.896;2024-01-11T13:02:12;0.30;;;0.30;;
1402;SDS011;696;48.546;9.896;2024-01-11T13:04:40;0.30;;;0.30;;
1402;SDS011;696;48.546;9.896;2024-01-11T13:07:06;0.22;;;0.22;;
1402;SDS011;696;48.546;9.896;2024-01-11T13:09:32;0.40;;;0.40;;
1402;SDS011;696;48.546;9.896;2024-01-11T13:11:58;0.30;;;0.30;;
1402;SDS011;696;48.546;9.896;2024-01-11T13:14:24;0.30;;;0.30;;
1402;SDS011;696;48.546;9.896;2024-01-11T13:16:49;0.30;;;0.30;;
1402;SDS011;696;48.546;9.896;2024-01-11T13:19:15;0.40;;;0.40;;
1402;SDS011;696;48.546;9.896;2024-01-11T13:21:41;0.30;;;0.30;;
1402;SDS011;696;48.546;9.896;2024-01-11T13:24:06;0.40;;;0.40;;
1402;SDS011;696;48.546;9.896;2024-01-11T13:26:35;0.40;;;0.40;;
1402;SDS011;696;48.546;9.896;2024-01-11T13:29:04;0.40;;;0.40;;
1402;SDS011;696;48.546;9.896;2024-01-11T13:31:30;0.50;;;0.50;;
1402;SDS011;696;48.546;9.896;2024-01-11T13:33:56;0.40;;;0.40;;
1402;SDS011;696;48.546;9.896;2024-01-11T13:36:22;0.40;;;0.40;;
1402;SDS011;696;48.546;9.896;2024-01-11T13:38:48;0.30;;;0.30;;
1402;SDS011;696;48.546;9.896;2024-01-11T13:41:18;0.30;;;0.30;;
1402;SDS011;696;48.546;9.896;2024-01-11T13:43:43;0.40;;;0.40;;
1402;SDS011;696;48.546;9.896;2024-01-11T13:46:09;0.40;;;0.40;;
1402;SDS011;696;48.546;9.896;2024-01-11T13:48:36;0.38;;;0.38;;
1402;SDS011;696;48.546;9.896;2024-01-11T13:51:02;0.30;;;0.30;;
1402;SDS011;696;48.546;9.896;2024-01-11T13:53:32;0.40;;;0.40;;
1402;SDS011;696;48.546;9.896;2024-01-11T13:55:57;0.40;;;0.40;;
1402;SDS011;696;48.546;9.896;2024-01-11T13:58:22;0.40;;;0.40;;
1402;SDS011;696;48.546;9.896;2024-01-11T14:00:48;0.40;;;0.40;;
1402;SDS011;696;48.546;9.896;2024-01-11T14:03:13;0.30;;;0.30;;
1402;SDS011;696;48.546;9.896;2024-01-11T14:05:39;0.50;;;0.50;;
1402;SDS011;696;48.546;9.896;2024-01-11T14:08:04;0.40;;;0.40;;
1402;SDS011;696;48.546;9.896;2024-01-11T14:10:33;0.40;;;0.40;;
1402;SDS011;696;48.546;9.896;2024-01-11T14:12:59;0.50;;;0.50;;
1402;SDS011;696;48.546;9.896;2024-01-11T14:15:25;0.43;;;0.43;;
1402;SDS011;696;48.546;9.896;2024-01-11T14:17:51;0.40;;;0.40;;
1402;SDS011;696;48.546;9.896;2024-01-11T14:20:17;0.50;;;0.50;;
1402;SDS011;696;48.546;9.896;2024-01-11T14:22:43;0.40;;;0.40;;
1402;SDS011;696;48.546;9.896;2024-01-11T14:25:15;0.47;;;0.47;;
1402;SDS011;696;48.546;9.896;2024-01-11T14:27:44;0.40;;;0.40;;
1402;SDS011;696;48.546;9.896;2024-01-11T14:30:09;0.40;;;0.40;;
1402;SDS011;696;48.546;9.896;2024-01-11T14:32:36;0.40;;;0.40;;
1402;SDS011;696;48.546;9.896;2024-01-11T14:35:01;0.40;;;0.40;;
1402;SDS011;696;48.546;9.896;2024-01-11T14:37:29;0.45;;;0.45;;
1402;SDS011;696;48.546;9.896;2024-01-11T14:39:55;0.50;;;0.50;;
1402;SDS011;696;48.546;9.896;2024-01-11T14:42:20;0.50;;;0.50;;
1402;SDS011;696;48.546;9.896;2024-01-11T14:44:46;0.40;;;0.40;;
1402;SDS011;696;48.546;9.896;2024-01-11T14:47:11;0.50;;;0.50;;
1402;SDS011;696;48.546;9.896;2024-01-11T14:49:36;0.30;;;0.30;;
1402;SDS011;696;48.546;9.896;2024-01-11T14:52:02;0.40;;;0.40;;
1402;SDS011;696;48.546;9.896;2024-01-11T14:54:28;0.40;;;0.40;;
1402;SDS011;696;48.546;9.896;2024-01-11T14:56:53;0.50;;;0.50;;
1402;SDS011;696;48.546;9.896;2024-01-11T14:59:19;0.43;;;0.43;;
1402;SDS011;696;48.546;9.896;2024-01-11T15:01:44;0.40;;;0.40;;
1402;SDS011;696;48.546;9.896;2024-01-11T15:04:10;0.52;;;0.52;;
1402;SDS011;696;48.546;9.896;2024-01-11T15:06:35;0.40;;;0.40;;
1402;SDS011;696;48.546;9.896;2024-01-11T15:09:01;0.50;;;0.50;;
1402;SDS011;696;48.546;9.896;2024-01-11T15:11:27;0.60;;;0.60;;
1402;SDS011;696;48.546;9.896;2024-01-11T15:13:54;0.40;;;0.40;;
1402;SDS011;696;48.546;9.896;2024-01-11T15:16:20;0.50;;;0.50;;
1402;SDS011;696;48.546;9.896;2024-01-11T15:18:48;0.50;;;0.50;;
1402;SDS011;696;48.546;9.896;2024-01-11T15:21:14;0.50;;;0.50;;
1402;SDS011;696;48.546;9.896;2024-01-11T15:23:39;0.50;;;0.50;;